Langley AFB, Virginia
Current Conditions -  °F | °C
As of 10:44 PM on Sunday 23 Nov 2014 (Local Time) from KLFI Reporting Station
Light Rain Light Rain  
Wind Chill: 63°   Ceiling: 2300
Heat Index: 63°   Visibility: 10mi
Dew Point: 63°   Wind: 12mph
Humidity: 100%   Direction: 140°SE
Pressure: 29.89"   Gusts: 20mph
Location:  37.0868°N, 76.3631°W
Report Text: KLFI 240344Z AUTO 14010G17KT 10SM -RA FEW015 BKN023 BKN034 BKN070 OVC110 17/17 A2989 RMK AO2 CIG 023V070 $
Loading
Personal Weather Stations






























Interactive Weather Map New forecast layout! Learn more

10-Day Weather Forecast

Advertisements
Track Severe Weather on mobile